Time;durP1;ratioP1;P1;durP2;ratioP2;P2;SDS_P1;SDS_P2;PMS_P1;PMS_P2;Temp;Humidity;BMP_temperature;BMP_pressure;BME280_temperature;BME280_humidity;BME280_pressure;Samples;Min_cycle;Max_cycle;Signal;HPM_P1;HPM_P2
2022/12/17 13:08:08;;;;;;;;;;;;;;;;;;5063801;28;4984;-64
2022/12/17 13:10:34;;;;;;;;;;;;;;;;;;5053383;28;5095;-64
2022/12/17 13:13:20;;;;;;;;;;;;;;;;;;5062076;28;3436;-64
2022/12/17 13:15:46;;;;;;;;;;;;;;;;;;5049836;28;4700;-66
2022/12/17 13:18:15;;;;;;;;;;;;;;;;;;5056915;28;5275;-66
2022/12/17 13:20:40;;;;;;;;;;;;;;;;;;5061375;28;5037;-64
2022/12/17 13:23:08;;;;;;;;;;;;;;;;;;5062487;28;4655;-63
2022/12/17 13:25:34;;;;;;;;;;;;;;;;;;5060833;28;4557;-65
2022/12/17 13:27:59;;;;;;;;;;;;;;;;;;5061046;28;3548;-66
2022/12/17 13:30:31;;;;;;;;;;;;;;;;;;5063352;28;4660;-66
2022/12/17 13:32:59;;;;;;;;;;;;;;;;;;5060775;28;5039;-66
2022/12/17 13:35:27;;;;;;;;;;;;;;;;;;5064748;28;5015;-65
2022/12/17 13:37:58;;;;;;;;;;;;;;;;;;5064351;28;5504;-64
2022/12/17 13:40:29;;;;;;;;;;;;;;;;;;5057522;28;4458;-66
2022/12/17 13:42:55;;;;;;;;;;;;;;;;;;5051238;28;3596;-66
2022/12/17 13:45:21;;;;;;;;;;;;;;;;;;5057546;28;4640;-65
2022/12/17 13:47:56;;;;;;;;;;;;;;;;;;5058433;28;4497;-66
2022/12/17 13:50:28;;;;;;;;;;;;;;;;;;5060534;28;5142;-65
2022/12/17 13:52:53;;;;;;;;;;;;;;;;;;5055516;28;4911;-65
2022/12/17 13:55:20;;;;;;;;;;;;;;;;;;5063010;28;4762;-66
2022/12/17 13:57:45;;;;;;;;;;;;;;;;;;5061123;28;3220;-65
2022/12/17 14:00:17;;;;;;;;;;;;;;;;;;5061339;28;4507;-64
2022/12/17 14:02:42;;;;;;;;;;;;;;;;;;5047879;28;5043;-66
2022/12/17 14:05:20;;;;;;;;;;;;;;;;;;5063638;28;5123;-66
2022/12/17 14:07:45;;;;;;;;;;;;;;;;;;5061009;28;4898;-64
2022/12/17 14:10:16;;;;;;;;;;;;;;;;;;5064595;28;1256;-65
2022/12/17 14:12:41;;;;;;;;;;;;;;;;;;5049651;28;4550;-65
2022/12/17 14:15:11;;;;;;;;;;;;;;;;;;5061043;28;4662;-65
2022/12/17 14:17:37;;;;;;;;;;;;;;;;;;5049082;28;5285;-62
2022/12/17 14:20:03;;;;;;;;;;;;;;;;;;5024137;28;5095;-65
2022/12/17 14:22:31;;;;;;;;;;;;;;;;;;5052937;28;5021;-63
2022/12/17 14:24:56;;;;;;;;;;;;;;;;;;5057685;28;3598;-63
2022/12/17 14:27:23;;;;;;;;;;;;;;;;;;5054058;28;5060;-63
2022/12/17 14:29:48;;;;;;;;;;;;;;;;;;5058790;28;5036;-64
2022/12/17 14:32:23;;;;;;;;;;;;;;;;;;5056964;28;4698;-63
2022/12/17 14:34:49;;;;;;;;;;;;;;;;;;5062329;28;5365;-63
2022/12/17 14:37:15;;;;;;;;;;;;;;;;;;5064937;28;3566;-61
2022/12/17 14:39:42;;;;;;;;;;;;;;;;;;5060647;28;5029;-62
2022/12/17 14:42:24;;;;;;;;;;;;;;;;;;5063479;28;4642;-62
2022/12/17 14:44:55;;;;;;;;;;;;;;;;;;5064175;28;4987;-63
2022/12/17 14:47:28;;;;;;;;;;;;;;;;;;5063602;28;5111;-63
2022/12/17 14:49:53;;;;;;;;;;;;;;;;;;5053440;28;4647;-61
2022/12/17 14:52:39;;;;;;;;;;;;;;;;;;5064399;28;5644;-61
2022/12/17 14:55:20;;;;;;;;;;;;;;;;;;5038183;28;3397;-61
2022/12/17 14:57:45;;;;;;;;;;;;;;;;;;5048660;28;4952;-63
2022/12/17 15:00:11;;;;;;;;;;;;;;;;;;5030318;28;4714;-63
2022/12/17 15:02:37;;;;;;;;;;;;;;;;;;5067662;28;5318;-62
2022/12/17 15:05:02;;;;;;;;;;;;;;;;;;5034857;28;5046;-62
2022/12/17 15:07:28;;;;;;;;;;;;;;;;;;5040947;28;4631;-62
2022/12/17 15:09:53;;;;;;;;;;;;;;;;;;5065380;28;3392;-62
2022/12/17 15:12:19;;;;;;;;;;;;;;;;;;5070789;28;4499;-62
2022/12/17 15:14:45;;;;;;;;;;;;;;;;;;5064521;28;5025;-62
2022/12/17 15:17:10;;;;;;;;;;;;;;;;;;5070246;28;5339;-62
2022/12/17 15:19:36;;;;;;;;;;;;;;;;;;5049677;28;5085;-62
2022/12/17 15:22:01;;;;;;;;;;;;;;;;;;5074819;28;3656;-63
2022/12/17 15:24:27;;;;;;;;;;;;;;;;;;5060827;28;4482;-63
2022/12/17 15:26:52;;;;;;;;;;;;;;;;;;5066702;28;4614;-63
2022/12/17 15:29:17;;;;;;;;;;;;;;;;;;5073870;28;4514;-62
2022/12/17 15:31:42;;;;;;;;;;;;;;;;;;5051298;28;5332;-63
2022/12/17 15:34:08;;;;;;;;;;;;;;;;;;5068795;28;3408;-63
2022/12/17 15:36:33;;;;;;;;;;;;;;;;;;5048799;28;4691;-63
2022/12/17 15:38:59;;;;;;;;;;;;;;;;;;5060447;28;4590;-63
2022/12/17 15:44:08;;;;;;;;;;;;;;;;;;5063075;28;4506;-65
2022/12/17 15:46:33;;;;;;;;;;;;;;;;;;5060223;28;5081;-61
2022/12/17 15:48:59;;;;;;;;;;;;;;;;;;5051604;28;3588;-62
2022/12/17 15:51:24;;;;;;;;;;;;;;;;;;5052955;28;4627;-62
2022/12/17 15:53:49;;;;;;;;;;;;;;;;;;5061692;28;4529;-62
2022/12/17 15:56:19;;;;;;;;;;;;;;;;;;5049520;28;6287;-61
2022/12/17 15:58:44;;;;;;;;;;;;;;;;;;5055843;28;5075;-64
2022/12/17 16:01:09;;;;;;;;;;;;;;;;;;5054419;28;5061;-62
2022/12/17 16:03:35;;;;;;;;;;;;;;;;;;5052517;28;5098;-65
2022/12/17 16:06:00;;;;;;;;;;;;;;;;;;5050971;28;3677;-62
2022/12/17 16:08:25;;;;;;;;;;;;;;;;;;5059394;28;4416;-66
2022/12/17 16:10:51;;;;;;;;;;;;;;;;;;5052196;28;4887;-67
2022/12/17 16:13:16;;;;;;;;;;;;;;;;;;5053336;28;5227;-63
2022/12/17 16:15:41;;;;;;;;;;;;;;;;;;5058982;28;4971;-62
2022/12/17 16:18:06;;;;;;;;;;;;;;;;;;5060014;28;3205;-61
2022/12/17 16:20:32;;;;;;;;;;;;;;;;;;5058306;28;5036;-59
2022/12/17 16:22:57;;;;;;;;;;;;;;;;;;5058011;28;4733;-65
2022/12/17 16:25:22;;;;;;;;;;;;;;;;;;5052817;28;5118;-62
2022/12/17 16:27:47;;;;;;;;;;;;;;;;;;5059863;28;5052;-60
2022/12/17 16:30:13;;;;;;;;;;;;;;;;;;5055416;28;5180;-62
2022/12/17 16:32:38;;;;;;;;;;;;;;;;;;5049209;28;3666;-63
2022/12/17 16:35:04;;;;;;;;;;;;;;;;;;5049179;28;4705;-64
2022/12/17 16:37:29;;;;;;;;;;;;;;;;;;5064385;28;4634;-63
2022/12/17 16:39:54;;;;;;;;;;;;;;;;;;5056480;28;6038;-61
2022/12/17 16:42:19;;;;;;;;;;;;;;;;;;5061156;28;5107;-64
2022/12/17 16:44:45;;;;;;;;;;;;;;;;;;5054812;28;4243;-60
2022/12/17 16:47:10;;;;;;;;;;;;;;;;;;5046938;28;4475;-62
2022/12/17 16:49:35;;;;;;;;;;;;;;;;;;5051986;28;5185;-63
2022/12/17 16:52:02;;;;;;;;;;;;;;;;;;5060591;28;5037;-61
2022/12/17 16:54:28;;;;;;;;;;;;;;;;;;5049967;28;5248;-60
2022/12/17 16:56:53;;;;;;;;;;;;;;;;;;5049331;28;3676;-63
2022/12/17 16:59:18;;;;;;;;;;;;;;;;;;5057928;28;4666;-62
2022/12/17 17:01:45;;;;;;;;;;;;;;;;;;5056908;28;5011;-63
2022/12/17 17:04:10;;;;;;;;;;;;;;;;;;5059953;28;6235;-62
2022/12/17 17:06:39;;;;;;;;;;;;;;;;;;5053630;28;5187;-62
2022/12/17 17:09:04;;;;;;;;;;;;;;;;;;5056314;28;3662;-62
2022/12/17 17:11:30;;;;;;;;;;;;;;;;;;5055092;28;4996;-60
2022/12/17 17:13:55;;;;;;;;;;;;;;;;;;5052995;28;5079;-60
2022/12/17 17:16:22;;;;;;;;;;;;;;;;;;5053669;28;5107;-62
2022/12/17 17:18:47;;;;;;;;;;;;;;;;;;5056653;28;5300;-61
2022/12/17 17:21:22;;;;;;;;;;;;;;;;;;5056578;28;5120;-63
2022/12/17 17:24:06;;;;;;;;;;;;;;;;;;5055546;28;3426;-66
2022/12/17 17:26:32;;;;;;;;;;;;;;;;;;5060584;28;5086;-62
2022/12/17 17:28:57;;;;;;;;;;;;;;;;;;5058446;28;4981;-67
2022/12/17 17:31:22;;;;;;;;;;;;;;;;;;5052575;28;4549;-65
2022/12/17 17:33:48;;;;;;;;;;;;;;;;;;5061299;28;5087;-63
2022/12/17 17:36:17;;;;;;;;;;;;;;;;;;5055856;28;5125;-62
2022/12/17 17:38:42;;;;;;;;;;;;;;;;;;5056112;28;3405;-67
2022/12/17 17:41:08;;;;;;;;;;;;;;;;;;5060082;28;4991;-67
2022/12/17 17:43:33;;;;;;;;;;;;;;;;;;5056703;28;4709;-60
2022/12/17 17:46:06;;;;;;;;;;;;;;;;;;5060362;28;4938;-61
2022/12/17 17:48:32;;;;;;;;;;;;;;;;;;5060051;28;4605;-65
2022/12/17 17:51:01;;;;;;;;;;;;;;;;;;5060942;28;3411;-65
2022/12/17 17:53:26;;;;;;;;;;;;;;;;;;5055900;28;5131;-63
2022/12/17 17:55:51;;;;;;;;;;;;;;;;;;5054785;28;5202;-62
2022/12/17 17:58:17;;;;;;;;;;;;;;;;;;5053242;28;4985;-66
2022/12/17 18:00:42;;;;;;;;;;;;;;;;;;5055341;28;5222;-60
2022/12/17 18:03:07;;;;;;;;;;;;;;;;;;5057967;28;4502;-65
2022/12/17 18:05:36;;;;;;;;;;;;;;;;;;5053554;28;4426;-68
2022/12/17 18:08:01;;;;;;;;;;;;;;;;;;5066162;28;5228;-65
2022/12/17 18:10:27;;;;;;;;;;;;;;;;;;5065047;28;5020;-63
2022/12/17 18:15:36;;;;;;;;;;;;;;;;;;5063404;28;5644;-64
2022/12/17 18:18:02;;;;;;;;;;;;;;;;;;5060350;28;3502;-65
2022/12/17 18:20:27;;;;;;;;;;;;;;;;;;5061113;28;4973;-70
2022/12/17 18:22:52;;;;;;;;;;;;;;;;;;5061637;28;4988;-70
2022/12/17 18:25:17;;;;;;;;;;;;;;;;;;5063543;28;4658;-72
2022/12/17 18:27:43;;;;;;;;;;;;;;;;;;5064631;28;4453;-68
2022/12/17 18:30:08;;;;;;;;;;;;;;;;;;5065248;28;3687;-68
2022/12/17 18:32:34;;;;;;;;;;;;;;;;;;5056192;28;4784;-62
2022/12/17 18:34:59;;;;;;;;;;;;;;;;;;5062661;28;5175;-62
2022/12/17 18:37:24;;;;;;;;;;;;;;;;;;5060882;28;4569;-66
2022/12/17 18:39:50;;;;;;;;;;;;;;;;;;5063732;28;5025;-63
2022/12/17 18:44:59;;;;;;;;;;;;;;;;;;5053761;28;3646;-64
2022/12/17 18:47:24;;;;;;;;;;;;;;;;;;5052806;28;5090;-63
2022/12/17 18:49:49;;;;;;;;;;;;;;;;;;5055707;28;4696;-65
2022/12/17 18:52:15;;;;;;;;;;;;;;;;;;5059481;28;5161;-64
2022/12/17 18:54:40;;;;;;;;;;;;;;;;;;5068719;28;5271;-63
2022/12/17 18:57:05;;;;;;;;;;;;;;;;;;5076183;28;2113;-64
2022/12/17 18:59:30;;;;;;;;;;;;;;;;;;5075151;28;4888;-64
2022/12/17 19:01:56;;;;;;;;;;;;;;;;;;5073105;28;4521;-64
2022/12/17 19:04:21;;;;;;;;;;;;;;;;;;5071910;28;4633;-65
2022/12/17 19:06:47;;;;;;;;;;;;;;;;;;5074636;28;4783;-66
2022/12/17 19:09:17;;;;;;;;;;;;;;;;;;5075147;28;5035;-64
2022/12/17 19:11:42;;;;;;;;;;;;;;;;;;5074756;28;1249;-64
2022/12/17 19:14:07;;;;;;;;;;;;;;;;;;5076475;28;5044;-64
2022/12/17 19:16:33;;;;;;;;;;;;;;;;;;5079679;28;5941;-66
2022/12/17 19:18:59;;;;;;;;;;;;;;;;;;5062306;28;5201;-65
2022/12/17 19:21:24;;;;;;;;;;;;;;;;;;5070702;28;4905;-64
2022/12/17 19:23:49;;;;;;;;;;;;;;;;;;5078210;28;1153;-64
2022/12/17 19:26:16;;;;;;;;;;;;;;;;;;5057760;28;4615;-63
2022/12/17 19:28:42;;;;;;;;;;;;;;;;;;5078008;28;4619;-64
2022/12/17 19:31:07;;;;;;;;;;;;;;;;;;5073537;28;5160;-64
2022/12/17 19:33:32;;;;;;;;;;;;;;;;;;5074895;28;5060;-65
2022/12/17 19:36:17;;;;;;;;;;;;;;;;;;5065731;28;3546;-66
2022/12/17 19:38:42;;;;;;;;;;;;;;;;;;5073767;28;4981;-63
2022/12/17 19:41:09;;;;;;;;;;;;;;;;;;5075697;28;5018;-65
2022/12/17 19:43:34;;;;;;;;;;;;;;;;;;5078251;28;4537;-64
2022/12/17 19:46:03;;;;;;;;;;;;;;;;;;5059140;28;5146;-65
2022/12/17 19:48:29;;;;;;;;;;;;;;;;;;5050629;28;4500;-63
2022/12/17 19:50:56;;;;;;;;;;;;;;;;;;5036512;28;3752;-64
2022/12/17 19:53:26;;;;;;;;;;;;;;;;;;5070095;28;5215;-65
2022/12/17 19:55:52;;;;;;;;;;;;;;;;;;5073600;28;5174;-64
2022/12/17 19:58:17;;;;;;;;;;;;;;;;;;5062596;28;5068;-65
2022/12/17 20:00:42;;;;;;;;;;;;;;;;;;5077251;28;4556;-64
2022/12/17 20:03:08;;;;;;;;;;;;;;;;;;5070465;28;4464;-65
2022/12/17 20:05:33;;;;;;;;;;;;;;;;;;5078350;28;4612;-66
2022/12/17 20:07:58;;;;;;;;;;;;;;;;;;5048698;28;4931;-65
2022/12/17 20:10:24;;;;;;;;;;;;;;;;;;5046443;28;5106;-65
2022/12/17 20:12:49;;;;;;;;;;;;;;;;;;5068328;28;5020;-65
2022/12/17 20:15:14;;;;;;;;;;;;;;;;;;5067867;28;4710;-64
2022/12/17 20:17:40;;;;;;;;;;;;;;;;;;5066842;28;3287;-66
2022/12/17 20:20:05;;;;;;;;;;;;;;;;;;5036645;28;5235;-65
2022/12/17 20:22:30;;;;;;;;;;;;;;;;;;5067920;28;5067;-63
2022/12/17 20:24:56;;;;;;;;;;;;;;;;;;5053210;28;4707;-63
2022/12/17 20:27:21;;;;;;;;;;;;;;;;;;5041677;28;5131;-61
2022/12/17 20:29:47;;;;;;;;;;;;;;;;;;5063128;28;3633;-60
2022/12/17 20:32:12;;;;;;;;;;;;;;;;;;5064078;28;5040;-60
2022/12/17 20:34:37;;;;;;;;;;;;;;;;;;5070633;28;4532;-60
2022/12/17 20:37:02;;;;;;;;;;;;;;;;;;5068024;28;4712;-63
2022/12/17 20:39:28;;;;;;;;;;;;;;;;;;5070698;28;4761;-62
2022/12/17 20:41:54;;;;;;;;;;;;;;;;;;5061620;28;3707;-61
2022/12/17 20:44:19;;;;;;;;;;;;;;;;;;5062420;28;4529;-63
2022/12/17 20:46:44;;;;;;;;;;;;;;;;;;5056943;28;4648;-59
2022/12/17 20:49:10;;;;;;;;;;;;;;;;;;5057503;28;5121;-60
2022/12/17 20:51:35;;;;;;;;;;;;;;;;;;5042745;28;5064;-58
2022/12/17 20:54:01;;;;;;;;;;;;;;;;;;5054910;28;3652;-60
2022/12/17 20:56:27;;;;;;;;;;;;;;;;;;5064689;28;5149;-60
2022/12/17 20:58:53;;;;;;;;;;;;;;;;;;5067338;28;5001;-59
2022/12/17 21:01:19;;;;;;;;;;;;;;;;;;5072727;28;5292;-60
2022/12/17 21:03:44;;;;;;;;;;;;;;;;;;5065505;28;5156;-60
2022/12/17 21:06:13;;;;;;;;;;;;;;;;;;5066307;28;4500;-58
2022/12/17 21:08:38;;;;;;;;;;;;;;;;;;5070216;28;3640;-59
2022/12/17 21:11:04;;;;;;;;;;;;;;;;;;5037177;28;4992;-60
2022/12/17 21:13:29;;;;;;;;;;;;;;;;;;5069994;28;5152;-60
2022/12/17 21:15:59;;;;;;;;;;;;;;;;;;5047794;28;5140;-63
2022/12/17 21:18:24;;;;;;;;;;;;;;;;;;5060530;28;5067;-60
2022/12/17 21:20:55;;;;;;;;;;;;;;;;;;5065965;28;3422;-60
2022/12/17 21:23:21;;;;;;;;;;;;;;;;;;5056973;28;5374;-60
2022/12/17 21:25:46;;;;;;;;;;;;;;;;;;5068567;28;5450;-61
2022/12/17 21:28:11;;;;;;;;;;;;;;;;;;5073424;28;5037;-58
2022/12/17 21:30:38;;;;;;;;;;;;;;;;;;5069810;28;4522;-59
2022/12/17 21:33:03;;;;;;;;;;;;;;;;;;5066043;28;3464;-60
2022/12/17 21:35:28;;;;;;;;;;;;;;;;;;5067307;28;4823;-60
2022/12/17 21:37:54;;;;;;;;;;;;;;;;;;5070885;28;4485;-59
2022/12/17 21:40:19;;;;;;;;;;;;;;;;;;5065364;28;4499;-59
2022/12/17 21:43:02;;;;;;;;;;;;;;;;;;5068508;28;5155;-59
2022/12/17 21:45:37;;;;;;;;;;;;;;;;;;5069628;28;5340;-58
2022/12/17 21:48:03;;;;;;;;;;;;;;;;;;5051466;28;3500;-57
2022/12/17 21:50:29;;;;;;;;;;;;;;;;;;5063455;28;5106;-57
2022/12/17 21:52:54;;;;;;;;;;;;;;;;;;5062944;28;5055;-59
2022/12/17 21:55:19;;;;;;;;;;;;;;;;;;5067694;28;5156;-61
2022/12/17 21:57:44;;;;;;;;;;;;;;;;;;5060880;28;4690;-61
2022/12/17 22:00:10;;;;;;;;;;;;;;;;;;5071002;28;4637;-59
2022/12/17 22:02:35;;;;;;;;;;;;;;;;;;5064499;28;4469;-60
2022/12/17 22:05:01;;;;;;;;;;;;;;;;;;5059909;28;5286;-60
2022/12/17 22:07:26;;;;;;;;;;;;;;;;;;5048210;28;4674;-59
2022/12/17 22:09:51;;;;;;;;;;;;;;;;;;5057595;28;4682;-61
2022/12/17 22:15:00;;;;;;;;;;;;;;;;;;5058926;28;3560;-65
2022/12/17 22:17:26;;;;;;;;;;;;;;;;;;5029124;28;5055;-66
2022/12/17 22:19:51;;;;;;;;;;;;;;;;;;5061413;28;5056;-64
2022/12/17 22:22:16;;;;;;;;;;;;;;;;;;5043254;28;5131;-65
2022/12/17 22:24:41;;;;;;;;;;;;;;;;;;5068007;28;4704;-65
2022/12/17 22:27:07;;;;;;;;;;;;;;;;;;5067300;28;3748;-62
2022/12/17 22:34:59;;;;;;;;;;;;;;;;;;5061935;28;4628;-64
2022/12/17 22:37:25;;;;;;;;;;;;;;;;;;5063711;28;4925;-64
2022/12/17 22:39:50;;;;;;;;;;;;;;;;;;5030545;28;5050;-65
2022/12/17 22:45:04;;;;;;;;;;;;;;;;;;5058860;28;3588;-63
2022/12/17 22:47:29;;;;;;;;;;;;;;;;;;5066513;28;5070;-63
2022/12/17 22:49:54;;;;;;;;;;;;;;;;;;5065520;28;4962;-65
2022/12/17 22:52:19;;;;;;;;;;;;;;;;;;5057084;28;4523;-65
2022/12/17 22:54:44;;;;;;;;;;;;;;;;;;5060978;28;4522;-64
2022/12/17 22:57:10;;;;;;;;;;;;;;;;;;5053440;28;5186;-65
2022/12/17 22:59:35;;;;;;;;;;;;;;;;;;5059390;28;3577;-65
2022/12/17 23:02:00;;;;;;;;;;;;;;;;;;5058163;28;5246;-64
2022/12/17 23:04:25;;;;;;;;;;;;;;;;;;5058247;28;5111;-63
2022/12/17 23:06:51;;;;;;;;;;;;;;;;;;5058356;28;5313;-64
2022/12/17 23:09:19;;;;;;;;;;;;;;;;;;5059652;28;5151;-64
2022/12/17 23:11:45;;;;;;;;;;;;;;;;;;5063764;28;3500;-65
2022/12/17 23:14:10;;;;;;;;;;;;;;;;;;5064032;28;4628;-66
2022/12/17 23:16:38;;;;;;;;;;;;;;;;;;5063158;28;5031;-64
2022/12/17 23:19:04;;;;;;;;;;;;;;;;;;5060730;28;4663;-66
2022/12/17 23:21:29;;;;;;;;;;;;;;;;;;5064837;28;5098;-64
2022/12/17 23:23:55;;;;;;;;;;;;;;;;;;5070151;28;1089;-65
2022/12/17 23:26:21;;;;;;;;;;;;;;;;;;5065106;28;4950;-64
2022/12/17 23:28:47;;;;;;;;;;;;;;;;;;5062446;28;4975;-63
2022/12/17 23:31:13;;;;;;;;;;;;;;;;;;5061930;28;5185;-64
2022/12/17 23:33:38;;;;;;;;;;;;;;;;;;5055653;28;5021;-64
2022/12/17 23:36:11;;;;;;;;;;;;;;;;;;5060101;28;3596;-64
2022/12/17 23:38:36;;;;;;;;;;;;;;;;;;5056596;28;4605;-63
2022/12/17 23:41:04;;;;;;;;;;;;;;;;;;5057735;28;4965;-62
2022/12/17 23:43:30;;;;;;;;;;;;;;;;;;5053414;28;5062;-62
2022/12/17 23:45:55;;;;;;;;;;;;;;;;;;5053743;28;5996;-64
2022/12/17 23:48:20;;;;;;;;;;;;;;;;;;5056009;28;5067;-64
2022/12/17 23:50:45;;;;;;;;;;;;;;;;;;5066595;28;3439;-62
2022/12/17 23:53:11;;;;;;;;;;;;;;;;;;5063438;28;5015;-61
2022/12/17 23:55:36;;;;;;;;;;;;;;;;;;5063001;28;5138;-60
2022/12/17 23:58:01;;;;;;;;;;;;;;;;;;5065621;28;5156;-61
